Time;durP1;ratioP1;P1;durP2;ratioP2;P2;SDS_P1;SDS_P2;PMS_P1;PMS_P2;Temp;Humidity;BMP_temperature;BMP_pressure;BME280_temperature;BME280_humidity;BME280_pressure;Samples;Min_cycle;Max_cycle;Signal;HPM_P1;HPM_P2
2023/09/28 00:01:45;;;;;;;0.43;0.43;;;17.30;99.90;;;;;;5036916;28;20044;-69
2023/09/28 00:04:11;;;;;;;0.52;0.52;;;17.30;99.90;;;;;;5045761;28;20414;-69
2023/09/28 00:06:37;;;;;;;0.38;0.35;;;17.30;99.90;;;;;;5033076;28;20150;-69
2023/09/28 00:09:03;;;;;;;0.50;0.50;;;17.30;99.90;;;;;;5034627;28;20048;-69
2023/09/28 00:11:29;;;;;;;0.73;0.73;;;17.30;99.90;;;;;;5048350;28;20122;-68
2023/09/28 00:13:54;;;;;;;1.45;0.63;;;17.30;99.90;;;;;;5046746;28;20206;-68
2023/09/28 00:16:20;;;;;;;0.60;0.30;;;17.30;99.90;;;;;;5048640;28;20117;-68
2023/09/28 00:18:46;;;;;;;0.20;0.20;;;17.30;99.90;;;;;;5047121;28;20093;-68
2023/09/28 00:21:11;;;;;;;0.30;0.30;;;17.30;99.90;;;;;;5037625;28;20101;-68
2023/09/28 00:23:37;;;;;;;0.10;0.10;;;17.30;99.90;;;;;;5049425;28;20037;-68
2023/09/28 00:26:02;;;;;;;0.32;0.32;;;17.30;99.90;;;;;;5045632;28;20111;-68
2023/09/28 00:28:28;;;;;;;1.45;0.40;;;17.30;99.90;;;;;;5052431;28;20131;-68
2023/09/28 00:30:55;;;;;;;0.73;0.68;;;17.30;99.90;;;;;;5040419;28;20123;-68
2023/09/28 00:33:20;;;;;;;0.52;0.30;;;17.30;99.90;;;;;;5075597;28;20144;-68
2023/09/28 00:35:46;;;;;;;0.20;0.20;;;17.30;99.90;;;;;;5044522;28;20498;-68
2023/09/28 00:38:11;;;;;;;0.65;0.63;;;17.30;99.90;;;;;;5033126;28;20047;-68
2023/09/28 00:40:41;;;;;;;0.40;0.40;;;17.30;99.90;;;;;;5056039;28;20029;-68
2023/09/28 00:43:07;;;;;;;0.40;0.40;;;17.30;99.90;;;;;;5034101;28;20040;-68
2023/09/28 00:45:33;;;;;;;0.70;0.70;;;17.30;99.90;;;;;;5044750;28;20037;-68
2023/09/28 00:48:00;;;;;;;0.30;0.30;;;17.30;99.90;;;;;;5038612;28;20060;-68
2023/09/28 00:50:28;;;;;;;0.65;0.65;;;17.30;99.90;;;;;;5041402;28;20040;-68
2023/09/28 00:52:58;;;;;;;1.33;0.68;;;17.30;99.90;;;;;;5035874;28;20174;-68
2023/09/28 00:55:25;;;;;;;1.55;1.45;;;17.30;99.90;;;;;;5045236;28;20040;-68
2023/09/28 00:57:51;;;;;;;0.30;0.30;;;17.30;99.90;;;;;;5055008;28;20449;-68
2023/09/28 01:00:28;;;;;;;1.15;0.73;;;17.30;99.90;;;;;;5045691;28;20040;-68
2023/09/28 01:02:55;;;;;;;0.75;0.47;;;17.20;99.90;;;;;;5042692;28;20567;-68
2023/09/28 01:05:22;;;;;;;0.50;0.50;;;17.30;99.90;;;;;;5047139;28;20033;-68
2023/09/28 01:07:48;;;;;;;0.63;0.57;;;17.20;99.90;;;;;;5037540;28;20538;-68
2023/09/28 01:10:18;;;;;;;0.82;0.82;;;17.30;99.90;;;;;;5037953;28;20123;-68
2023/09/28 01:12:44;;;;;;;2.42;0.57;;;17.30;99.90;;;;;;5043813;28;20036;-68
2023/09/28 01:15:12;;;;;;;0.35;0.35;;;17.20;99.90;;;;;;5038000;28;20090;-68
2023/09/28 01:17:39;;;;;;;0.35;0.35;;;17.20;99.90;;;;;;5041306;28;20106;-68
2023/09/28 01:20:51;;;;;;;0.88;0.88;;;17.20;99.90;;;;;;5044105;28;20048;-68
2023/09/28 01:22:53;;;;;;;0.80;0.80;;;17.20;99.90;;;;;;5030328;28;20467;-68
2023/09/28 01:25:19;;;;;;;1.70;0.93;;;17.20;99.90;;;;;;5043620;28;20071;-68
2023/09/28 01:27:49;;;;;;;0.65;0.47;;;17.20;99.90;;;;;;5061865;28;20769;-68
2023/09/28 01:30:16;;;;;;;0.43;0.40;;;17.10;99.90;;;;;;5035173;28;20045;-68
2023/09/28 01:32:42;;;;;;;1.10;0.80;;;17.10;99.90;;;;;;5043606;28;20032;-68
2023/09/28 01:35:08;;;;;;;0.57;0.20;;;17.10;99.90;;;;;;5058020;28;20095;-68
2023/09/28 01:37:39;;;;;;;1.02;0.73;;;17.10;99.90;;;;;;5045024;28;20548;-68
2023/09/28 01:40:05;;;;;;;1.00;0.97;;;17.10;99.90;;;;;;5042869;28;20044;-68
2023/09/28 01:42:31;;;;;;;1.42;0.85;;;17.10;99.90;;;;;;5041062;28;20326;-68
2023/09/28 01:44:56;;;;;;;1.38;0.88;;;17.10;99.90;;;;;;5044769;28;21666;-68
2023/09/28 01:47:22;;;;;;;0.52;0.30;;;17.10;99.90;;;;;;5048985;28;20044;-68
2023/09/28 01:49:47;;;;;;;1.60;1.02;;;17.00;99.90;;;;;;5045532;28;20055;-68
2023/09/28 01:52:13;;;;;;;1.45;1.27;;;17.00;99.90;;;;;;5038370;28;20043;-68
2023/09/28 01:54:38;;;;;;;1.77;1.67;;;17.00;99.90;;;;;;5047592;28;20048;-68
2023/09/28 01:57:04;;;;;;;0.75;0.75;;;16.90;99.90;;;;;;5040699;28;20059;-68
2023/09/28 01:59:31;;;;;;;0.55;0.50;;;16.90;99.90;;;;;;5048236;28;20395;-68
2023/09/28 02:01:56;;;;;;;2.03;1.83;;;16.90;99.90;;;;;;5044047;28;20067;-68
2023/09/28 02:04:22;;;;;;;1.65;1.55;;;16.90;99.90;;;;;;5041817;28;20509;-68
2023/09/28 02:06:48;;;;;;;0.38;0.38;;;16.90;99.90;;;;;;5049965;28;20483;-68
2023/09/28 02:09:17;;;;;;;1.27;0.70;;;16.90;99.90;;;;;;5053451;28;20044;-68
2023/09/28 02:11:43;;;;;;;0.40;0.40;;;16.90;99.90;;;;;;5052612;28;20077;-68
2023/09/28 02:14:11;;;;;;;1.40;0.63;;;16.90;99.90;;;;;;5047272;28;20119;-68
2023/09/28 02:16:37;;;;;;;2.65;0.73;;;16.80;99.90;;;;;;5066815;28;20045;-68
2023/09/28 02:19:04;;;;;;;0.65;0.57;;;16.90;99.90;;;;;;5052737;28;20380;-68
2023/09/28 02:21:29;;;;;;;2.08;1.27;;;16.90;99.90;;;;;;5048815;28;20044;-68
2023/09/28 02:23:55;;;;;;;0.45;0.45;;;16.90;99.90;;;;;;5045404;28;20048;-68
2023/09/28 02:26:20;;;;;;;0.65;0.60;;;16.90;99.90;;;;;;5048493;28;20039;-68
2023/09/28 02:28:46;;;;;;;1.05;0.38;;;16.90;99.90;;;;;;5043809;28;20029;-68
2023/09/28 02:31:11;;;;;;;0.43;0.40;;;16.90;99.90;;;;;;5047355;28;20054;-68
2023/09/28 02:33:37;;;;;;;0.68;0.65;;;16.80;99.90;;;;;;5047053;28;20044;-68
2023/09/28 02:36:02;;;;;;;1.98;1.65;;;16.80;99.90;;;;;;5031091;28;20089;-68
2023/09/28 02:38:29;;;;;;;0.80;0.50;;;16.80;99.90;;;;;;5051214;28;20082;-68
2023/09/28 02:40:54;;;;;;;3.00;1.35;;;16.80;99.90;;;;;;5050920;28;20033;-68
2023/09/28 02:43:20;;;;;;;3.40;1.58;;;16.80;99.90;;;;;;5073887;28;20037;-68
2023/09/28 02:45:45;;;;;;;1.67;1.23;;;16.80;99.90;;;;;;5043605;28;20135;-68
2023/09/28 02:48:11;;;;;;;1.00;0.90;;;16.80;99.90;;;;;;5052554;28;20455;-68
2023/09/28 02:50:37;;;;;;;0.85;0.85;;;16.80;99.90;;;;;;5072466;28;20040;-67
2023/09/28 02:53:03;;;;;;;3.53;1.67;;;16.80;99.90;;;;;;5064975;28;20056;-67
2023/09/28 02:55:29;;;;;;;1.35;1.25;;;16.70;99.90;;;;;;5060975;28;20045;-68
2023/09/28 02:57:54;;;;;;;1.48;1.17;;;16.80;99.90;;;;;;5056201;28;20040;-67
2023/09/28 03:02:49;;;;;;;3.50;2.53;;;16.80;99.90;;;;;;5054443;28;20067;-67
2023/09/28 03:05:19;;;;;;;1.83;0.98;;;16.80;99.90;;;;;;5068501;28;20071;-67
2023/09/28 03:07:45;;;;;;;1.17;1.17;;;16.80;99.90;;;;;;5046888;28;20381;-67
2023/09/28 03:10:12;;;;;;;2.25;1.55;;;16.80;99.90;;;;;;5048383;28;20048;-68
2023/09/28 03:12:38;;;;;;;2.05;1.10;;;16.80;99.90;;;;;;5052524;28;20044;-68
2023/09/28 03:15:10;;;;;;;2.00;1.90;;;16.80;99.90;;;;;;5053795;28;20621;-68
2023/09/28 03:17:36;;;;;;;4.28;1.30;;;16.80;99.90;;;;;;5056503;28;20042;-68
2023/09/28 03:20:12;;;;;;;2.17;1.58;;;16.70;99.90;;;;;;5059270;28;20132;-68
2023/09/28 03:22:38;;;;;;;0.75;0.75;;;16.70;99.90;;;;;;5059280;28;20040;-68
2023/09/28 03:25:08;;;;;;;1.17;1.10;;;16.70;99.90;;;;;;5060577;28;20776;-68
2023/09/28 03:27:35;;;;;;;0.85;0.82;;;16.70;99.90;;;;;;5075357;28;20044;-68
2023/09/28 03:30:00;;;;;;;3.17;1.67;;;16.60;99.90;;;;;;5051869;28;20063;-68
2023/09/28 03:32:26;;;;;;;0.75;0.75;;;16.60;99.90;;;;;;5056036;28;20040;-68
2023/09/28 03:34:51;;;;;;;0.77;0.55;;;16.60;99.90;;;;;;5051823;28;20069;-68
2023/09/28 03:37:18;;;;;;;1.85;0.95;;;16.50;99.90;;;;;;5047426;28;20133;-68
2023/09/28 03:39:44;;;;;;;0.45;0.45;;;16.50;99.90;;;;;;5057824;28;20047;-68
2023/09/28 03:42:10;;;;;;;2.00;1.52;;;16.50;99.90;;;;;;5051225;28;20041;-68
2023/09/28 03:44:35;;;;;;;1.48;0.93;;;16.40;99.90;;;;;;5055251;28;20115;-68
2023/09/28 03:47:01;;;;;;;1.38;1.27;;;16.40;99.90;;;;;;5047247;28;20036;-68
2023/09/28 03:49:26;;;;;;;1.80;1.10;;;16.30;99.90;;;;;;5044061;28;20044;-68
2023/09/28 03:51:52;;;;;;;1.70;1.17;;;16.30;99.90;;;;;;5050428;28;20149;-68
2023/09/28 03:54:18;;;;;;;0.40;0.40;;;16.30;99.90;;;;;;5050528;28;20044;-68
2023/09/28 03:56:43;;;;;;;0.85;0.70;;;16.30;99.90;;;;;;5058380;28;20059;-68
2023/09/28 03:59:09;;;;;;;2.15;1.92;;;16.30;99.90;;;;;;5053719;28;20479;-68
2023/09/28 04:01:34;;;;;;;1.45;1.17;;;16.30;99.90;;;;;;5045765;28;20032;-68
2023/09/28 04:04:00;;;;;;;5.68;1.27;;;16.20;99.90;;;;;;5050681;28;20036;-68
2023/09/28 04:06:25;;;;;;;0.93;0.77;;;16.30;99.90;;;;;;5044942;28;20558;-68
2023/09/28 04:08:51;;;;;;;1.00;0.60;;;16.30;99.90;;;;;;5052036;28;20561;-68
2023/09/28 04:11:17;;;;;;;2.50;1.33;;;16.30;99.90;;;;;;5043062;28;20098;-68
2023/09/28 04:13:42;;;;;;;0.80;0.80;;;16.30;99.90;;;;;;5046168;28;20102;-68
2023/09/28 04:16:08;;;;;;;1.70;1.13;;;16.30;99.90;;;;;;5046540;28;20045;-68
2023/09/28 04:18:33;;;;;;;1.55;0.63;;;16.30;99.90;;;;;;5053492;28;20037;-68
2023/09/28 04:20:59;;;;;;;3.40;1.20;;;16.20;99.90;;;;;;5057933;28;20052;-68
2023/09/28 04:23:25;;;;;;;1.88;1.08;;;16.30;99.90;;;;;;5064572;28;20460;-68
2023/09/28 04:25:51;;;;;;;2.40;1.85;;;16.30;99.90;;;;;;5049247;28;20040;-67
2023/09/28 04:28:16;;;;;;;2.15;1.85;;;16.30;99.90;;;;;;5049357;28;20439;-68
2023/09/28 04:30:43;;;;;;;4.10;1.42;;;16.30;99.90;;;;;;5061114;28;20043;-68
2023/09/28 04:33:08;;;;;;;1.60;0.85;;;16.30;99.90;;;;;;5040733;28;20062;-67
2023/09/28 04:35:34;;;;;;;1.92;1.08;;;16.40;99.90;;;;;;5049980;28;20044;-68
2023/09/28 04:38:02;;;;;;;0.55;0.55;;;16.40;99.90;;;;;;5054444;28;20040;-68
2023/09/28 04:40:28;;;;;;;1.23;1.20;;;16.40;99.90;;;;;;5065257;28;20045;-68
2023/09/28 04:42:54;;;;;;;1.90;1.58;;;16.40;99.90;;;;;;5056023;28;20082;-68
2023/09/28 04:45:20;;;;;;;3.63;1.95;;;16.40;99.90;;;;;;5048208;28;20033;-68
2023/09/28 04:47:47;;;;;;;0.77;0.77;;;16.30;99.90;;;;;;5049116;28;20289;-67
2023/09/28 04:50:12;;;;;;;1.05;0.90;;;16.30;99.90;;;;;;5050406;28;20168;-67
2023/09/28 04:52:38;;;;;;;4.03;2.03;;;16.30;99.90;;;;;;5053937;28;20524;-68
2023/09/28 04:55:05;;;;;;;2.22;1.00;;;16.30;99.90;;;;;;5056879;28;20055;-68
2023/09/28 04:57:32;;;;;;;0.20;0.20;;;16.30;99.90;;;;;;5056931;28;20040;-68
2023/09/28 04:59:57;;;;;;;0.80;0.80;;;16.20;99.90;;;;;;5057036;28;20040;-68
2023/09/28 05:02:23;;;;;;;0.82;0.60;;;16.30;99.90;;;;;;5047251;28;20036;-67
2023/09/28 05:04:48;;;;;;;1.13;1.08;;;16.30;99.90;;;;;;5055380;28;20027;-68
2023/09/28 05:07:14;;;;;;;0.47;0.47;;;16.30;99.90;;;;;;5052781;28;20044;-68
2023/09/28 05:09:41;;;;;;;2.95;1.85;;;16.20;99.90;;;;;;5049788;28;20040;-68
2023/09/28 05:12:08;;;;;;;2.90;1.38;;;16.20;99.90;;;;;;5036120;28;20619;-68
2023/09/28 05:14:33;;;;;;;1.70;0.65;;;16.20;99.90;;;;;;5053616;28;20072;-68
2023/09/28 05:16:59;;;;;;;1.52;0.70;;;16.20;99.90;;;;;;5051563;28;20076;-68
2023/09/28 05:19:25;;;;;;;0.88;0.88;;;16.20;99.90;;;;;;5059451;28;20046;-68
2023/09/28 05:21:51;;;;;;;1.05;0.82;;;16.10;99.90;;;;;;5050478;28;20558;-67
2023/09/28 05:24:17;;;;;;;1.35;1.33;;;16.10;99.90;;;;;;5061391;28;20044;-67
2023/09/28 05:26:42;;;;;;;1.52;1.08;;;16.10;99.90;;;;;;5052635;28;20072;-67
2023/09/28 05:29:08;;;;;;;0.82;0.60;;;16.00;99.90;;;;;;5054319;28;20391;-67
2023/09/28 05:31:33;;;;;;;2.33;1.30;;;16.00;99.90;;;;;;5057323;28;20047;-68
2023/09/28 05:33:59;;;;;;;2.22;1.88;;;16.00;99.90;;;;;;5065554;28;20081;-67
2023/09/28 05:36:24;;;;;;;2.00;1.23;;;16.00;99.90;;;;;;5068959;28;20056;-67
2023/09/28 05:38:50;;;;;;;3.13;1.17;;;15.90;99.90;;;;;;5059526;28;20032;-67
2023/09/28 05:41:20;;;;;;;1.33;0.68;;;15.90;99.90;;;;;;5060111;28;20048;-69
2023/09/28 05:43:46;;;;;;;0.50;0.50;;;15.90;99.90;;;;;;5035453;28;20340;-67
2023/09/28 05:46:12;;;;;;;1.95;1.27;;;15.90;99.90;;;;;;5051613;28;20048;-68
2023/09/28 05:48:38;;;;;;;2.00;0.98;;;15.90;99.90;;;;;;5052027;28;20057;-68
2023/09/28 05:51:03;;;;;;;1.58;1.27;;;15.80;99.90;;;;;;5040348;28;20133;-68
2023/09/28 05:53:29;;;;;;;1.00;0.90;;;15.80;99.90;;;;;;5050979;28;20040;-68
2023/09/28 05:55:55;;;;;;;1.10;0.95;;;15.90;99.90;;;;;;5054974;28;20400;-68
2023/09/28 05:58:22;;;;;;;2.42;1.98;;;15.90;99.90;;;;;;5061480;28;20487;-68
2023/09/28 06:00:47;;;;;;;1.15;0.65;;;15.90;99.90;;;;;;5058229;28;20151;-69
2023/09/28 06:03:13;;;;;;;2.60;2.03;;;15.90;99.90;;;;;;5026701;28;20071;-68
2023/09/28 06:05:40;;;;;;;0.60;0.60;;;15.90;99.90;;;;;;5050945;28;20032;-68
2023/09/28 06:08:05;;;;;;;3.33;2.13;;;15.90;99.90;;;;;;5062056;28;20051;-68
2023/09/28 06:10:31;;;;;;;0.75;0.70;;;15.80;99.90;;;;;;5040564;28;20158;-68
2023/09/28 06:12:57;;;;;;;0.90;0.90;;;15.90;99.90;;;;;;5044882;28;20055;-68
2023/09/28 06:15:23;;;;;;;0.22;0.22;;;15.90;99.90;;;;;;5070624;28;20048;-67
2023/09/28 06:17:48;;;;;;;0.73;0.73;;;15.90;99.90;;;;;;5055951;28;20093;-67
2023/09/28 06:20:14;;;;;;;0.30;0.30;;;15.80;99.90;;;;;;5051334;28;20063;-67
2023/09/28 06:22:40;;;;;;;3.92;0.60;;;15.90;99.90;;;;;;5053717;28;20043;-67
2023/09/28 06:25:08;;;;;;;1.02;0.65;;;15.90;99.90;;;;;;5046793;28;20048;-68
2023/09/28 06:27:33;;;;;;;6.05;1.40;;;15.90;99.90;;;;;;5054937;28;20033;-67
2023/09/28 06:29:59;;;;;;;1.20;0.73;;;15.90;99.90;;;;;;5056040;28;20050;-68
2023/09/28 06:32:25;;;;;;;0.60;0.60;;;15.90;99.90;;;;;;5058328;28;20136;-68
2023/09/28 06:34:52;;;;;;;4.10;1.88;;;15.90;99.90;;;;;;5059451;28;20415;-67
2023/09/28 06:37:17;;;;;;;1.85;0.98;;;16.00;99.90;;;;;;5051482;28;20037;-67
2023/09/28 06:39:43;;;;;;;1.05;0.38;;;15.90;99.90;;;;;;5081155;28;20039;-68
2023/09/28 06:42:08;;;;;;;0.25;0.25;;;16.00;99.90;;;;;;5077154;28;20127;-68
2023/09/28 06:44:35;;;;;;;0.30;0.30;;;15.90;99.90;;;;;;5051607;28;20086;-68
2023/09/28 06:47:01;;;;;;;3.90;1.92;;;15.90;99.90;;;;;;5056234;28;20041;-67
2023/09/28 06:49:27;;;;;;;2.15;1.35;;;16.00;99.90;;;;;;5046636;28;20508;-66
2023/09/28 06:51:53;;;;;;;2.58;1.17;;;16.00;99.90;;;;;;5052397;28;20044;-68
2023/09/28 06:54:20;;;;;;;0.60;0.60;;;16.00;99.90;;;;;;5048960;28;20090;-68
2023/09/28 06:56:48;;;;;;;7.13;2.55;;;16.00;99.90;;;;;;5037831;28;20076;-68
2023/09/28 06:59:14;;;;;;;0.80;0.65;;;16.00;99.90;;;;;;5072581;28;20037;-67
2023/09/28 07:01:40;;;;;;;1.40;0.43;;;16.00;99.90;;;;;;5039185;28;20442;-68
2023/09/28 07:04:06;;;;;;;1.05;0.80;;;16.10;99.90;;;;;;5036853;28;20098;-68
2023/09/28 07:06:33;;;;;;;0.30;0.30;;;16.10;99.90;;;;;;5039225;28;20045;-68
2023/09/28 07:08:59;;;;;;;6.47;0.60;;;16.10;99.90;;;;;;5054076;28;20036;-68
2023/09/28 07:11:26;;;;;;;0.50;0.50;;;16.10;99.90;;;;;;5036029;28;20041;-68
2023/09/28 07:13:52;;;;;;;0.73;0.73;;;16.10;99.90;;;;;;5068915;28;20041;-69
2023/09/28 07:16:17;;;;;;;0.20;0.20;;;16.20;99.90;;;;;;5051841;28;20047;-68
2023/09/28 07:18:44;;;;;;;2.78;2.20;;;16.20;99.90;;;;;;5043789;28;20036;-67
2023/09/28 07:21:10;;;;;;;4.50;0.73;;;16.30;99.90;;;;;;5052179;28;20032;-67
2023/09/28 07:23:36;;;;;;;0.28;0.28;;;16.40;99.90;;;;;;5049916;28;20040;-68
2023/09/28 07:26:02;;;;;;;0.80;0.80;;;16.40;99.90;;;;;;5052873;28;20052;-68
2023/09/28 07:28:28;;;;;;;1.42;0.75;;;16.50;99.90;;;;;;5065485;28;20105;-67
2023/09/28 07:30:54;;;;;;;0.40;0.40;;;16.60;99.90;;;;;;5038519;28;20041;-67
2023/09/28 07:33:20;;;;;;;3.20;1.95;;;16.70;99.90;;;;;;5042198;28;20032;-68
2023/09/28 07:35:46;;;;;;;0.47;0.30;;;16.80;99.90;;;;;;5050858;28;20075;-67
2023/09/28 07:38:12;;;;;;;3.95;0.98;;;16.90;99.90;;;;;;5052263;28;20124;-68
2023/09/28 07:40:37;;;;;;;1.42;1.33;;;17.00;99.90;;;;;;5049598;28;20079;-67
2023/09/28 07:43:03;;;;;;;3.95;2.15;;;17.10;99.90;;;;;;5047631;28;20471;-68
2023/09/28 07:45:29;;;;;;;2.72;1.45;;;17.10;99.90;;;;;;5045618;28;20115;-68
2023/09/28 07:47:55;;;;;;;1.08;0.98;;;17.20;99.90;;;;;;5049614;28;20041;-67
2023/09/28 07:50:21;;;;;;;0.55;0.55;;;17.20;99.90;;;;;;5072209;28;20044;-67
2023/09/28 07:52:47;;;;;;;1.10;1.10;;;17.30;99.90;;;;;;5054511;28;20041;-68
2023/09/28 07:55:14;;;;;;;2.78;1.00;;;17.30;99.90;;;;;;5048512;28;20510;-67
2023/09/28 07:57:40;;;;;;;11.60;2.00;;;17.30;99.90;;;;;;5040057;28;20047;-67
2023/09/28 08:00:07;;;;;;;1.80;1.23;;;17.40;99.90;;;;;;5037444;28;20420;-68
2023/09/28 08:02:32;;;;;;;1.77;0.90;;;17.40;99.90;;;;;;5069052;28;20661;-67
2023/09/28 08:04:58;;;;;;;2.85;1.90;;;17.40;99.90;;;;;;5049640;28;20045;-68
2023/09/28 08:07:33;;;;;;;1.05;1.00;;;17.40;99.90;;;;;;5053319;28;20550;-67
2023/09/28 08:10:00;;;;;;;2.20;1.60;;;17.40;99.90;;;;;;5079685;28;20101;-69
2023/09/28 08:12:26;;;;;;;0.90;0.82;;;17.40;99.90;;;;;;5054330;28;20052;-67
2023/09/28 08:14:52;;;;;;;4.35;1.50;;;17.40;99.90;;;;;;5042843;28;20056;-68
2023/09/28 08:17:19;;;;;;;0.10;0.10;;;17.40;99.90;;;;;;5054382;28;20093;-67
2023/09/28 08:19:45;;;;;;;0.75;0.75;;;17.50;99.90;;;;;;5051540;28;20036;-69
2023/09/28 08:22:11;;;;;;;4.45;0.93;;;17.50;99.90;;;;;;5076170;28;20048;-68
2023/09/28 08:24:36;;;;;;;1.48;1.38;;;17.50;99.90;;;;;;5053709;28;20041;-67
2023/09/28 08:27:04;;;;;;;0.47;0.47;;;17.60;99.90;;;;;;5053546;28;20055;-68
2023/09/28 08:29:31;;;;;;;0.63;0.63;;;17.60;99.90;;;;;;5053814;28;20522;-67
2023/09/28 08:31:57;;;;;;;2.42;2.25;;;17.50;99.90;;;;;;5035235;28;20389;-68
2023/09/28 08:34:23;;;;;;;11.02;0.63;;;17.40;99.90;;;;;;5038217;28;20049;-68
2023/09/28 08:36:50;;;;;;;0.35;0.35;;;17.50;99.90;;;;;;5052181;28;20090;-68
2023/09/28 08:39:16;;;;;;;1.30;0.60;;;17.50;99.90;;;;;;5053130;28;20119;-67
2023/09/28 08:41:43;;;;;;;1.77;0.68;;;17.50;99.90;;;;;;5045249;28;20116;-68
2023/09/28 08:44:09;;;;;;;5.32;2.20;;;17.60;99.90;;;;;;5068730;28;20049;-68
2023/09/28 08:46:39;;;;;;;0.45;0.45;;;17.60;99.90;;;;;;5035481;28;20048;-68
2023/09/28 08:49:09;;;;;;;0.52;0.50;;;17.60;99.90;;;;;;5034928;28;20114;-68
2023/09/28 08:51:38;;;;;;;0.55;0.55;;;17.60;99.90;;;;;;5053696;28;20450;-68
2023/09/28 08:54:05;;;;;;;7.03;0.57;;;17.60;99.90;;;;;;5047129;28;20435;-68
2023/09/28 08:56:36;;;;;;;1.23;1.17;;;17.70;99.90;;;;;;5034711;28;20491;-68
2023/09/28 08:59:02;;;;;;;0.63;0.63;;;17.70;99.90;;;;;;5080155;28;20328;-68
2023/09/28 09:01:30;;;;;;;1.58;0.50;;;17.80;99.90;;;;;;5070283;28;20044;-68
2023/09/28 09:03:57;;;;;;;1.45;0.32;;;17.90;99.90;;;;;;5051989;28;20558;-68
2023/09/28 09:06:24;;;;;;;0.85;0.85;;;18.00;99.90;;;;;;5040724;28;20399;-68
2023/09/28 09:08:50;;;;;;;6.88;0.77;;;18.00;99.90;;;;;;5045985;28;20036;-69
2023/09/28 09:11:16;;;;;;;0.15;0.15;;;18.10;99.90;;;;;;5053912;28;20568;-68
2023/09/28 09:13:55;;;;;;;12.68;1.25;;;18.10;99.90;;;;;;5050209;28;20399;-68
2023/09/28 09:16:29;;;;;;;3.63;0.77;;;18.10;99.90;;;;;;5054023;28;20048;-68
2023/09/28 09:18:58;;;;;;;1.00;0.90;;;18.10;99.90;;;;;;5050782;28;20089;-68
2023/09/28 09:21:24;;;;;;;0.13;0.13;;;18.10;99.90;;;;;;5079811;28;20067;-68
2023/09/28 09:24:13;;;;;;;3.75;0.43;;;18.10;99.90;;;;;;5050297;28;20037;-68
2023/09/28 09:26:47;;;;;;;0.95;0.52;;;18.10;99.90;;;;;;5044320;28;20123;-67
2023/09/28 09:29:15;;;;;;;5.60;0.85;;;18.10;99.90;;;;;;5034797;28;20041;-68
2023/09/28 09:31:45;;;;;;;3.90;1.40;;;18.10;99.90;;;;;;5039544;28;20036;-68
2023/09/28 09:34:17;;;;;;;0.30;0.30;;;18.10;99.90;;;;;;5040241;28;20398;-68
2023/09/28 09:36:58;;;;;;;2.55;1.45;;;18.20;99.90;;;;;;5046780;28;20036;-68
2023/09/28 09:39:30;;;;;;;14.05;1.30;;;18.20;99.90;;;;;;5044729;28;20444;-67
2023/09/28 09:41:57;;;;;;;1.20;1.20;;;18.20;99.90;;;;;;5063546;28;20054;-67
2023/09/28 09:44:24;;;;;;;1.73;1.33;;;18.30;99.90;;;;;;5055755;28;20050;-67
2023/09/28 09:46:52;;;;;;;1.65;0.52;;;18.30;99.90;;;;;;5061376;28;20258;-69
2023/09/28 09:49:19;;;;;;;1.05;0.93;;;18.40;99.90;;;;;;5072711;28;20089;-67
2023/09/28 09:51:47;;;;;;;0.75;0.75;;;18.40;99.90;;;;;;5064751;28;20124;-68
2023/09/28 09:54:14;;;;;;;1.77;1.00;;;18.40;99.90;;;;;;5050923;28;20044;-69
2023/09/28 09:56:46;;;;;;;0.40;0.40;;;18.40;99.90;;;;;;5043881;28;20037;-68
2023/09/28 09:59:22;;;;;;;7.88;0.20;;;18.40;99.90;;;;;;5047041;28;20043;-68
2023/09/28 10:01:53;;;;;;;0.80;0.57;;;18.40;99.90;;;;;;5042407;28;20036;-68
2023/09/28 10:04:21;;;;;;;0.10;0.10;;;18.40;99.90;;;;;;5048642;28;20052;-68
2023/09/28 10:06:48;;;;;;;0.32;0.32;;;18.40;99.90;;;;;;5060456;28;20426;-68
2023/09/28 10:09:21;;;;;;;0.32;0.30;;;18.30;99.90;;;;;;5036332;28;20056;-68
2023/09/28 10:11:49;;;;;;;0.45;0.20;;;18.40;99.90;;;;;;5029839;28;20062;-68
2023/09/28 10:14:16;;;;;;;9.98;1.67;;;18.40;99.90;;;;;;5064277;28;20040;-67
2023/09/28 10:16:44;;;;;;;0.10;0.10;;;18.50;99.90;;;;;;5057124;28;20075;-68
2023/09/28 10:19:15;;;;;;;1.45;0.45;;;18.60;99.90;;;;;;5065143;28;20043;-68
2023/09/28 10:21:41;;;;;;;2.60;0.50;;;18.70;99.90;;;;;;5038167;28;20032;-68
2023/09/28 10:24:15;;;;;;;2.15;1.10;;;18.80;99.90;;;;;;5041603;28;20041;-68
2023/09/28 10:26:51;;;;;;;0.10;0.10;;;18.90;99.90;;;;;;5035723;28;20045;-69
2023/09/28 10:29:32;;;;;;;0.15;0.15;;;18.90;99.90;;;;;;5069224;28;20036;-69
2023/09/28 10:31:58;;;;;;;0.55;0.55;;;18.90;99.90;;;;;;5048425;28;20049;-69
2023/09/28 10:34:29;;;;;;;2.03;0.68;;;18.90;99.90;;;;;;5045370;28;20049;-68
2023/09/28 10:37:07;;;;;;;0.10;0.10;;;18.90;99.90;;;;;;5064833;28;20442;-68
2023/09/28 10:39:33;;;;;;;1.17;0.35;;;19.00;99.90;;;;;;5064498;28;20041;-68
2023/09/28 10:42:10;;;;;;;0.20;0.20;;;19.00;99.90;;;;;;5048104;28;20059;-68
2023/09/28 10:44:48;;;;;;;0.10;0.10;;;18.90;99.90;;;;;;5050437;28;20490;-68
2023/09/28 10:47:14;;;;;;;1.88;0.73;;;19.00;99.90;;;;;;5043530;28;20045;-68
2023/09/28 10:49:40;;;;;;;1.33;0.65;;;19.00;99.90;;;;;;5043152;28;20131;-68
2023/09/28 10:52:09;;;;;;;0.80;0.15;;;19.10;99.90;;;;;;5048766;28;20143;-68
2023/09/28 10:54:36;;;;;;;0.20;0.20;;;19.10;99.90;;;;;;5046536;28;20045;-69
2023/09/28 10:57:02;;;;;;;0.57;0.57;;;19.10;99.90;;;;;;5016360;28;20069;-68
2023/09/28 10:59:28;;;;;;;0.32;0.30;;;19.00;99.90;;;;;;5035953;28;20082;-68
2023/09/28 11:01:55;;;;;;;2.28;1.42;;;18.90;99.90;;;;;;5034159;28;20045;-68
2023/09/28 11:04:21;;;;;;;0.32;0.20;;;18.90;99.90;;;;;;5033459;28;20044;-68
2023/09/28 11:06:48;;;;;;;0.20;0.20;;;18.70;99.90;;;;;;5047467;28;20032;-68
2023/09/28 11:09:19;;;;;;;0.30;0.30;;;18.80;99.90;;;;;;5067322;28;20045;-70
2023/09/28 11:11:45;;;;;;;3.47;0.50;;;18.80;99.90;;;;;;5051622;28;20044;-69
2023/09/28 11:14:11;;;;;;;3.40;1.02;;;18.80;99.90;;;;;;5041458;28;20040;-69
2023/09/28 11:16:38;;;;;;;2.30;0.85;;;18.80;99.90;;;;;;5078456;28;20051;-70
2023/09/28 11:19:04;;;;;;;0.98;0.32;;;18.70;99.90;;;;;;5052264;28;20402;-68
2023/09/28 11:21:31;;;;;;;5.15;2.83;;;18.70;99.90;;;;;;5040922;28;20424;-67
2023/09/28 11:23:57;;;;;;;0.65;0.65;;;18.80;99.90;;;;;;5087761;28;20045;-69
2023/09/28 11:26:23;;;;;;;0.20;0.20;;;18.80;99.90;;;;;;5052878;28;20045;-69
2023/09/28 11:28:50;;;;;;;0.60;0.50;;;18.80;99.90;;;;;;5046211;28;20123;-68
2023/09/28 11:31:16;;;;;;;0.60;0.60;;;18.80;99.90;;;;;;5045381;28;20102;-69
2023/09/28 11:33:44;;;;;;;2.78;0.35;;;18.70;99.90;;;;;;5035397;28;20041;-69
2023/09/28 11:36:17;;;;;;;2.78;1.95;;;18.70;99.90;;;;;;5046001;28;20047;-68
2023/09/28 11:38:44;;;;;;;0.30;0.30;;;18.80;99.90;;;;;;5038102;28;20036;-68
2023/09/28 11:41:11;;;;;;;1.15;1.13;;;18.80;99.90;;;;;;5061047;28;20361;-68
2023/09/28 11:43:59;;;;;;;8.10;1.20;;;18.80;99.90;;;;;;5067655;28;20452;-69
2023/09/28 11:46:29;;;;;;;0.52;0.52;;;18.80;99.90;;;;;;5051375;28;20084;-68
2023/09/28 11:49:13;;;;;;;0.35;0.35;;;18.80;99.90;;;;;;5045329;28;20049;-68
2023/09/28 11:51:40;;;;;;;9.40;0.57;;;18.80;99.90;;;;;;5053997;28;20058;-68
2023/09/28 11:54:06;;;;;;;1.85;1.70;;;18.80;99.90;;;;;;5051907;28;20048;-69
2023/09/28 11:56:33;;;;;;;8.40;1.85;;;18.80;99.90;;;;;;5049754;28;20507;-69
2023/09/28 11:58:58;;;;;;;4.00;0.45;;;18.80;99.90;;;;;;5040616;28;20123;-69
2023/09/28 12:01:25;;;;;;;0.50;0.50;;;18.90;99.90;;;;;;5044316;28;20128;-69
2023/09/28 12:03:50;;;;;;;3.30;0.35;;;18.80;99.90;;;;;;5036813;28;20052;-68
2023/09/28 12:06:19;;;;;;;1.55;1.45;;;18.90;99.90;;;;;;5047626;28;20040;-69
2023/09/28 12:08:45;;;;;;;1.92;1.00;;;18.90;99.90;;;;;;5048430;28;20123;-69
2023/09/28 12:11:11;;;;;;;0.13;0.13;;;18.90;99.90;;;;;;5051440;28;20078;-69
2023/09/28 12:13:37;;;;;;;0.73;0.73;;;18.90;99.90;;;;;;5053659;28;20071;-69
2023/09/28 12:16:04;;;;;;;5.78;0.85;;;18.90;99.90;;;;;;5049479;28;20043;-69
2023/09/28 12:18:30;;;;;;;20.10;0.90;;;18.90;99.90;;;;;;5048202;28;20115;-68
2023/09/28 12:20:55;;;;;;;1.60;0.47;;;18.90;99.90;;;;;;5044744;28;20187;-68
2023/09/28 12:23:21;;;;;;;0.52;0.52;;;18.90;99.90;;;;;;5068367;28;20032;-69
2023/09/28 12:25:47;;;;;;;0.77;0.77;;;18.90;99.90;;;;;;5037620;28;20348;-68
2023/09/28 12:28:12;;;;;;;0.20;0.20;;;18.80;99.90;;;;;;5027768;28;20036;-70
2023/09/28 12:30:38;;;;;;;3.28;0.68;;;18.80;99.90;;;;;;5042254;28;20064;-69
2023/09/28 12:33:14;;;;;;;0.80;0.80;;;18.80;99.90;;;;;;5046250;28;20448;-68
2023/09/28 12:35:39;;;;;;;1.98;0.45;;;18.90;99.90;;;;;;5047698;28;20043;-67
2023/09/28 12:38:08;;;;;;;2.45;1.25;;;18.90;99.90;;;;;;5050355;28;20044;-68
2023/09/28 12:40:34;;;;;;;0.25;0.25;;;19.00;99.90;;;;;;5049838;28;20036;-67
2023/09/28 12:43:05;;;;;;;4.55;3.25;;;19.00;99.90;;;;;;5046508;28;20029;-69
2023/09/28 12:45:33;;;;;;;0.43;0.40;;;18.90;99.90;;;;;;5049639;28;20051;-67
2023/09/28 12:48:00;;;;;;;6.20;1.13;;;19.00;99.90;;;;;;5046261;28;20053;-68